Archer City, Texas
Current Conditions -  °F | °C
As of 12:15 PM on Wednesday 26 Nov 2014 (Local Time) from KCWC Reporting Station
Clear Clear  
Wind Chill: 57°   Ceiling: Unl
Heat Index: 57°   Visibility: 10mi
Dew Point: 33°   Wind: 15mph
Humidity: 40%   Direction: 340°NNW
Pressure: 30.24"   Gusts: 20mph
Location:  33.6°N, 98.63°W
Report Text: KCWC 261815Z AUTO 34013G17KT 10SM CLR 14/01 A3024 RMK AO2 T01380005
Loading
Personal Weather Stations






























Interactive Weather Map New forecast layout! Learn more

10-Day Weather Forecast

Advertisements
Track Severe Weather on mobile